createdAt,value
2023-01-02T00:01:32.689Z,96337.16
2023-01-02T00:04:00.660Z,96097.94
2023-01-02T00:06:28.460Z,96141.66
2023-01-02T00:08:56.204Z,96150.69
2023-01-02T00:11:23.868Z,96304.09
2023-01-02T00:13:51.559Z,96200.94
2023-01-02T00:16:20.695Z,96290.28
2023-01-02T00:18:48.404Z,96296.16
2023-01-02T00:21:16.203Z,96249.44
2023-01-02T00:23:44.616Z,96276.13
2023-01-02T00:26:12.554Z,96198.94
2023-01-02T00:28:40.270Z,96310.84
2023-01-02T00:31:09.413Z,96292.09
2023-01-02T00:33:39.034Z,96178.91
2023-01-02T00:36:07.752Z,96293.31
2023-01-02T00:38:38.161Z,96278.00
2023-01-02T00:41:07.027Z,96299.41
2023-01-02T00:43:34.891Z,96090.75
2023-01-02T00:46:06.303Z,96280.63
2023-01-02T00:48:40.151Z,96245.88
2023-01-02T00:51:08.064Z,96236.13
2023-01-02T00:53:36.055Z,96248.41
2023-01-02T00:56:03.733Z,96242.94
2023-01-02T00:58:31.401Z,96291.63
2023-01-02T01:00:59.153Z,96195.94
2023-01-02T01:03:26.882Z,96139.66
2023-01-02T01:05:55.948Z,96274.97
2023-01-02T01:08:23.822Z,96277.59
2023-01-02T01:10:52.488Z,96213.91
2023-01-02T01:13:20.246Z,96120.47
2023-01-02T01:15:47.978Z,96268.81
2023-01-02T01:18:15.656Z,96259.38
2023-01-02T01:20:43.271Z,96280.69
2023-01-02T01:23:12.268Z,96281.63
2023-01-02T01:25:39.932Z,96274.41
2023-01-02T01:28:07.575Z,96272.59
2023-01-02T01:30:35.224Z,96275.91
2023-01-02T01:33:02.857Z,96156.75
2023-01-02T01:35:30.507Z,96276.31
2023-01-02T01:37:59.217Z,96277.19
2023-01-02T01:40:28.257Z,96260.41
2023-01-02T01:43:00.759Z,96162.44
2023-01-02T01:45:28.824Z,96266.28
2023-01-02T01:48:01.410Z,96176.56
2023-01-02T01:50:32.954Z,96163.41
2023-01-02T01:53:05.145Z,96182.34
2023-01-02T01:55:37.837Z,96281.41
2023-01-02T01:58:10.226Z,96277.78
2023-01-02T02:00:38.418Z,96175.03
2023-01-02T02:03:12.326Z,96292.16
2023-01-02T02:05:42.012Z,96279.78
2023-01-02T02:08:14.820Z,96283.16
2023-01-02T02:10:44.081Z,96284.28
2023-01-02T02:13:11.857Z,96265.84
2023-01-02T02:15:48.046Z,96050.31
2023-01-02T02:18:30.031Z,96137.22
2023-01-02T02:21:06.917Z,96232.72
2023-01-02T02:24:18.639Z,96275.56
2023-01-02T02:27:00.886Z,96270.81
2023-01-02T02:30:04.076Z,96199.88
2023-01-02T02:32:49.434Z,96165.00
2023-01-02T02:35:29.743Z,96263.59
2023-01-02T02:38:08.363Z,96283.38
2023-01-02T02:40:49.715Z,96236.63
2023-01-02T02:43:25.741Z,96253.63
2023-01-02T02:46:05.253Z,96244.91
2023-01-02T02:48:46.747Z,96236.63
2023-01-02T02:51:20.346Z,96113.06
2023-01-02T02:53:54.768Z,96232.44
2023-01-02T02:56:25.988Z,96232.88
2023-01-02T02:58:54.261Z,96105.44
2023-01-02T03:01:30.860Z,96142.69
2023-01-02T03:03:59.167Z,96248.28
2023-01-02T03:06:42.917Z,96101.91
2023-01-02T03:09:16.565Z,96225.44
2023-01-02T03:11:51.080Z,96242.13
2023-01-02T03:14:27.089Z,96115.41
2023-01-02T03:17:03.880Z,96219.75
2023-01-02T03:19:39.018Z,96219.66
2023-01-02T03:22:11.958Z,96195.00
2023-01-02T03:24:42.348Z,96210.00
2023-01-02T03:27:16.183Z,96205.63
2023-01-02T03:29:48.465Z,96206.25
2023-01-02T03:32:24.388Z,96198.88
2023-01-02T03:34:52.864Z,96155.25
2023-01-02T03:37:26.927Z,96183.03
2023-01-02T03:39:57.944Z,96195.66
2023-01-02T03:42:29.912Z,96185.34
2023-01-02T03:45:01.290Z,96067.09
2023-01-02T03:47:36.940Z,96197.84
2023-01-02T03:50:10.852Z,96197.72
2023-01-02T03:52:38.596Z,96076.81
2023-01-02T03:55:07.414Z,96191.59
2023-01-02T03:57:43.881Z,96198.53
2023-01-02T04:00:14.219Z,96144.59
2023-01-02T04:02:50.600Z,96198.28
2023-01-02T04:05:23.838Z,96098.13
2023-01-02T04:07:58.611Z,96065.06
2023-01-02T04:10:29.277Z,96195.22
2023-01-02T04:13:01.908Z,96191.59
2023-01-02T04:15:34.241Z,96197.97
2023-01-02T04:18:09.543Z,96196.63
2023-01-02T04:20:41.964Z,96195.16
2023-01-02T04:23:14.440Z,96200.34
2023-01-02T04:25:46.640Z,96192.63
2023-01-02T04:28:20.726Z,96179.56
2023-01-02T04:30:55.889Z,96172.81
2023-01-02T04:33:26.249Z,96198.78
2023-01-02T05:12:21.635Z,96211.31
2023-01-02T05:14:49.280Z,96222.56
2023-01-02T05:17:17.016Z,96197.59
2023-01-02T05:19:44.652Z,96212.56
2023-01-02T05:22:30.193Z,96199.47
2023-01-02T05:24:57.867Z,96202.88
2023-01-02T05:27:26.903Z,96191.56
2023-01-02T05:29:54.606Z,96166.75
2023-01-02T05:32:22.272Z,96216.41
2023-01-02T05:34:49.986Z,96065.75
2023-01-02T05:37:17.720Z,96195.09
2023-01-02T05:39:45.534Z,96155.06
2023-01-02T05:42:13.342Z,96162.22
2023-01-02T05:44:42.368Z,96204.28
2023-01-02T05:47:13.478Z,96215.75
2023-01-02T05:49:44.116Z,96181.72
2023-01-02T05:52:11.850Z,96135.91
2023-01-02T05:54:39.540Z,96228.47
2023-01-02T05:57:07.770Z,96155.72
2023-01-02T05:59:36.418Z,96204.94
2023-01-02T06:02:05.743Z,96226.53
2023-01-02T06:04:33.511Z,96174.22
2023-01-02T06:07:01.250Z,96195.81
2023-01-02T06:09:29.036Z,96170.47
2023-01-02T06:11:56.845Z,96194.28
2023-01-02T06:14:25.070Z,96256.72
2023-01-02T06:16:52.880Z,96127.06
2023-01-02T06:19:22.164Z,96169.09
2023-01-02T06:21:49.974Z,96255.78
2023-01-02T06:24:17.694Z,96192.72
2023-01-02T06:26:45.350Z,96184.56
2023-01-02T06:29:13.045Z,96140.53
2023-01-02T06:31:43.470Z,96242.63
2023-01-02T06:34:14.080Z,96236.50
2023-01-02T06:36:44.065Z,96214.84
2023-01-02T06:39:11.769Z,96246.34
2023-01-02T06:41:39.495Z,96232.88
2023-01-02T06:44:07.167Z,96200.13
2023-01-02T06:46:34.881Z,96189.75
2023-01-02T06:49:02.627Z,96143.16
2023-01-02T06:51:30.461Z,96221.19
2023-01-02T06:53:59.622Z,96236.03
2023-01-02T06:56:27.381Z,96213.06
2023-01-02T06:58:55.111Z,96197.44
2023-01-02T07:01:24.089Z,96223.28
2023-01-02T07:03:52.045Z,96228.41
2023-01-02T07:06:21.727Z,96261.63
2023-01-02T07:08:49.949Z,96237.34
2023-01-02T07:11:21.516Z,96237.81
2023-01-02T07:13:50.819Z,96230.25
2023-01-02T07:16:21.154Z,96207.31
2023-01-02T07:18:49.246Z,96150.59
2023-01-02T07:21:19.042Z,96236.38
2023-01-02T07:23:47.503Z,96150.63
2023-01-02T07:26:15.693Z,96210.06
2023-01-02T07:28:44.835Z,96117.31
2023-01-02T07:31:15.140Z,96161.97
2023-01-02T07:33:43.405Z,96248.13
2023-01-02T07:36:13.641Z,96258.19
2023-01-02T07:38:41.437Z,96237.91
2023-01-02T07:41:15.602Z,96225.78
2023-01-02T07:43:46.256Z,96166.44
2023-01-02T07:46:15.227Z,96199.66
2023-01-02T07:48:43.117Z,96262.56
2023-01-02T07:51:11.770Z,96219.66
2023-01-02T07:53:41.563Z,96245.81
2023-01-02T07:56:09.998Z,96241.63
2023-01-02T07:58:38.709Z,96235.72
2023-01-02T08:01:09.643Z,96198.84
2023-01-02T08:03:37.919Z,96212.91
2023-01-02T08:06:07.082Z,96254.53
2023-01-02T08:08:34.804Z,96159.59
2023-01-02T08:11:05.734Z,96213.34
2023-01-02T08:13:33.843Z,96181.31
2023-01-02T08:16:05.869Z,96242.28
2023-01-02T08:18:35.482Z,96136.56
2023-01-02T08:21:03.592Z,96280.53
2023-01-02T08:23:31.577Z,96286.28
2023-01-02T08:26:00.431Z,96292.22
2023-01-02T08:28:28.626Z,96220.84
2023-01-02T08:30:56.533Z,96273.94
2023-01-02T08:33:24.332Z,96270.25
2023-01-02T08:35:53.783Z,96253.63
2023-01-02T08:38:21.484Z,96239.53
2023-01-02T08:40:49.285Z,96233.50
2023-01-02T08:43:17.414Z,96217.50
2023-01-02T08:46:04.035Z,96288.50
2023-01-02T08:48:31.885Z,96309.19
2023-01-02T08:51:00.967Z,96339.38
2023-01-02T08:53:28.692Z,96301.31
2023-01-02T08:55:56.381Z,96304.41
2023-01-02T08:58:24.137Z,96271.25
2023-01-02T09:00:52.940Z,96189.53
2023-01-02T09:03:20.636Z,96278.13
2023-01-02T09:05:53.132Z,96297.66
2023-01-02T09:08:22.120Z,96249.53
2023-01-02T09:10:49.774Z,96294.06
2023-01-02T09:13:17.519Z,96276.44
2023-01-02T09:15:45.655Z,96201.03
2023-01-02T09:18:13.381Z,96312.91
2023-01-02T09:20:41.144Z,96222.41
2023-01-02T09:23:09.291Z,96310.19
2023-01-02T09:25:38.510Z,96284.75
2023-01-02T09:28:06.142Z,96268.72
2023-01-02T09:30:34.531Z,96287.78
2023-01-02T09:33:03.018Z,96243.59
2023-01-02T09:35:36.145Z,96300.78
2023-01-02T09:38:04.118Z,96216.38
2023-01-02T09:40:33.302Z,96302.31
2023-01-02T09:43:03.323Z,96296.53
2023-01-02T09:45:31.439Z,96335.25
2023-01-02T09:48:00.923Z,96318.28
2023-01-02T09:50:32.050Z,96269.69
2023-01-02T09:53:01.764Z,96317.59
2023-01-02T09:55:38.709Z,96300.41
2023-01-02T09:58:19.808Z,96312.34
2023-01-02T10:00:51.104Z,96316.19
2023-01-02T10:03:28.450Z,96342.09
2023-01-02T10:06:11.424Z,96321.97
2023-01-02T10:08:49.057Z,96321.78
2023-01-02T10:11:36.091Z,96318.72
2023-01-02T10:14:19.298Z,96304.25
2023-01-02T10:16:50.751Z,96292.88
2023-01-02T10:19:22.961Z,96237.81
2023-01-02T10:21:54.366Z,96286.41
2023-01-02T10:24:31.280Z,96271.38
2023-01-02T10:27:00.382Z,96224.47
2023-01-02T10:29:34.102Z,96280.84
2023-01-02T10:32:05.198Z,96275.19
2023-01-02T10:34:41.826Z,96250.59
2023-01-02T10:37:14.268Z,96225.78
2023-01-02T10:39:44.606Z,96226.72
2023-01-02T10:42:14.650Z,96268.13
2023-01-02T10:44:46.172Z,96168.41
2023-01-02T10:47:21.216Z,96251.56
2023-01-02T10:49:49.857Z,96260.88
2023-01-02T10:52:24.771Z,96240.84
2023-01-02T10:54:59.499Z,96265.94
2023-01-02T10:57:39.149Z,96212.38
2023-01-02T11:00:28.383Z,96291.78
2023-01-02T11:02:58.345Z,96231.19
2023-01-02T11:05:28.011Z,96239.91
2023-01-02T11:07:56.642Z,96159.97
2023-01-02T11:10:29.429Z,96276.13
2023-01-02T11:12:57.411Z,96263.47
2023-01-02T11:15:30.865Z,96262.94
2023-01-02T11:17:59.674Z,96257.31
2023-01-02T11:20:30.215Z,96267.09
2023-01-02T11:23:01.345Z,96269.72
2023-01-02T11:25:33.533Z,96245.13
2023-01-02T11:28:04.589Z,96246.31
2023-01-02T11:30:44.098Z,96256.25
2023-01-02T11:33:21.481Z,96265.13
2023-01-02T11:35:51.881Z,96256.19
2023-01-02T11:38:30.257Z,96215.69
2023-01-02T11:41:00.518Z,96207.97
2023-01-02T11:43:51.179Z,96227.84
2023-01-02T11:46:31.222Z,96217.34
2023-01-02T11:49:05.382Z,96258.16
2023-01-02T11:51:35.587Z,96242.41
2023-01-02T11:54:13.580Z,96236.38
2023-01-02T11:56:45.285Z,96185.09
2023-01-02T11:59:19.286Z,96252.94
2023-01-02T12:01:58.425Z,96230.16
2023-01-02T12:04:26.487Z,96266.91
2023-01-02T12:07:12.298Z,96271.13
2023-01-02T12:09:53.744Z,96256.81
2023-01-02T12:12:37.188Z,96179.06
2023-01-02T12:15:26.629Z,96182.56
2023-01-02T12:18:01.773Z,96242.47
2023-01-02T12:20:41.519Z,96253.94
2023-01-02T12:23:31.826Z,96252.84
2023-01-02T12:26:09.564Z,96241.06
2023-01-02T12:28:59.759Z,96246.03
2023-01-02T12:31:56.569Z,96268.38
2023-01-02T12:34:40.381Z,96242.06
2023-01-02T12:37:24.436Z,96249.72
2023-01-02T12:40:19.785Z,96239.19
2023-01-02T12:43:14.174Z,96265.50
2023-01-02T12:45:51.284Z,96259.25
2023-01-02T12:48:37.792Z,96257.94
2023-01-02T12:51:17.748Z,96237.13
2023-01-02T12:54:20.044Z,96236.53
2023-01-02T12:56:55.700Z,96226.53
2023-01-02T12:59:40.573Z,96280.28
2023-01-02T13:02:19.951Z,96234.28
2023-01-02T13:04:52.820Z,96243.72
2023-01-02T13:07:30.250Z,96265.28
2023-01-02T13:10:01.515Z,96227.75
2023-01-02T13:12:32.410Z,96283.97
2023-01-02T13:15:02.811Z,96281.84
2023-01-02T13:17:57.281Z,96289.19
2023-01-02T13:20:36.895Z,96285.50
2023-01-02T13:23:32.846Z,96235.59
2023-01-02T13:26:03.195Z,96293.34
2023-01-02T13:28:30.918Z,96283.69
2023-01-02T13:31:35.472Z,96304.38
2023-01-02T13:33:51.970Z,96310.13
2023-01-02T13:36:23.642Z,96301.91
2023-01-02T13:38:55.864Z,96294.88
2023-01-02T13:41:24.332Z,96314.97
2023-01-02T13:43:56.198Z,96298.03
2023-01-02T13:47:02.228Z,96331.19
2023-01-02T13:49:21.769Z,96317.88
2023-01-02T13:51:49.676Z,96321.41
2023-01-02T13:54:20.983Z,96288.13
2023-01-02T13:57:18.081Z,96346.28
2023-01-02T13:59:58.261Z,96317.66
2023-01-02T14:02:26.213Z,96346.88
2023-01-02T14:04:54.122Z,96355.91
2023-01-02T14:07:43.862Z,96347.75
2023-01-02T14:10:33.206Z,96353.88
2023-01-02T14:13:06.655Z,96339.19
2023-01-02T14:15:55.568Z,96352.94
2023-01-02T14:18:30.751Z,96352.50
2023-01-02T14:20:58.774Z,96374.34
2023-01-02T14:23:30.220Z,96377.28
2023-01-02T14:25:59.482Z,96342.59
2023-01-02T14:28:30.080Z,96357.06
2023-01-02T14:30:58.818Z,96381.38
2023-01-02T14:33:32.154Z,96345.03
2023-01-02T14:36:09.027Z,96321.69
2023-01-02T14:38:41.942Z,96302.22
2023-01-02T14:42:10.527Z,96385.69
2023-01-02T14:44:40.952Z,96375.44
2023-01-02T14:47:14.887Z,96384.66
2023-01-02T14:49:45.525Z,96387.31
2023-01-02T14:52:18.362Z,96388.41
2023-01-02T14:54:51.540Z,96375.00
2023-01-02T14:57:28.042Z,96345.28
2023-01-02T14:59:57.997Z,96380.34
2023-01-02T15:02:32.184Z,96390.06
2023-01-02T15:05:06.121Z,96366.13
2023-01-02T15:07:37.579Z,96406.69
2023-01-02T15:10:13.456Z,96413.81
2023-01-02T15:13:04.525Z,96406.44
2023-01-02T15:15:38.065Z,96391.72
2023-01-02T15:18:10.068Z,96422.81
2023-01-02T15:20:39.390Z,96432.59
2023-01-02T15:23:07.191Z,96342.19
2023-01-02T15:25:37.634Z,96428.66
2023-01-02T15:28:07.706Z,96428.38
2023-01-02T15:30:39.438Z,96437.88
2023-01-02T15:33:12.807Z,96438.41
2023-01-02T15:35:40.516Z,96388.78
2023-01-02T15:38:22.274Z,96361.38
2023-01-02T15:40:50.201Z,96444.75
2023-01-02T15:43:36.629Z,96378.78
2023-01-02T15:46:04.692Z,96412.03
2023-01-02T15:48:33.440Z,96461.59
2023-01-02T15:51:01.427Z,96443.41
2023-01-02T15:53:31.143Z,96460.03
2023-01-02T15:55:59.482Z,96465.81
2023-01-02T15:58:30.720Z,96457.41
2023-01-02T16:01:15.784Z,96440.00
2023-01-02T16:04:01.670Z,96421.22
2023-01-02T16:06:34.594Z,96463.19
2023-01-02T16:09:05.306Z,96460.81
2023-01-02T16:11:36.051Z,96485.06
2023-01-02T16:14:20.516Z,96483.75
2023-01-02T16:16:52.654Z,96406.13
2023-01-02T16:19:26.788Z,96494.00
2023-01-02T16:22:05.160Z,96427.44
2023-01-02T16:24:35.704Z,96484.69
2023-01-02T16:27:13.808Z,96503.13
2023-01-02T16:29:44.538Z,96482.03
2023-01-02T16:32:24.808Z,96461.38
2023-01-02T16:35:03.857Z,96462.69
2023-01-02T16:37:36.810Z,96457.41
2023-01-02T16:40:59.644Z,96511.78
2023-01-02T16:43:30.764Z,96502.47
2023-01-02T16:46:00.563Z,96514.09
2023-01-02T16:48:30.364Z,96463.22
2023-01-02T16:50:59.472Z,96512.81
2023-01-02T16:53:30.154Z,96526.28
2023-01-02T16:55:57.979Z,96494.03
2023-01-02T16:58:26.304Z,96535.28
2023-01-02T17:00:55.284Z,96538.72
2023-01-02T17:03:26.918Z,96494.66
2023-01-02T17:06:01.411Z,96511.03
2023-01-02T17:08:31.202Z,96541.13
2023-01-02T17:10:59.559Z,96554.63
2023-01-02T17:13:27.628Z,96554.53
2023-01-02T17:15:55.886Z,96474.78
2023-01-02T17:18:25.803Z,96544.47
2023-01-02T17:20:53.574Z,96566.84
2023-01-02T17:23:21.258Z,96555.94
2023-01-02T17:25:49.017Z,96494.13
2023-01-02T17:28:17.221Z,96578.53
2023-01-02T17:30:48.921Z,96589.88
2023-01-02T17:33:16.720Z,96574.97
2023-01-02T17:35:47.211Z,96593.72
2023-01-02T17:38:15.131Z,96498.00
2023-01-02T17:40:42.822Z,96598.16
2023-01-02T17:43:10.734Z,96603.41
2023-01-02T17:45:38.828Z,96493.38
2023-01-02T17:48:11.565Z,96586.66
2023-01-02T17:50:41.167Z,96567.19
2023-01-02T17:53:10.215Z,96575.63
2023-01-02T17:55:37.942Z,96578.63
2023-01-02T17:58:05.628Z,96616.78
2023-01-02T18:00:33.396Z,96557.00
2023-01-02T18:03:01.127Z,96571.47
2023-01-02T18:05:28.940Z,96603.78
2023-01-02T18:07:56.638Z,96497.81
2023-01-02T18:10:32.692Z,96537.59
2023-01-02T18:13:00.659Z,96637.34
2023-01-02T18:15:29.307Z,96636.75
2023-01-02T18:17:57.307Z,96526.97
2023-01-02T18:20:25.437Z,96583.69
2023-01-02T18:22:54.493Z,96635.06
2023-01-02T18:25:27.504Z,96607.06
2023-01-02T18:27:58.754Z,96639.66
2023-01-02T18:30:27.712Z,96632.34
2023-01-02T18:33:01.789Z,96634.72
2023-01-02T18:38:29.811Z,96622.41
2023-01-02T18:40:59.352Z,96631.69
2023-01-02T18:43:29.170Z,96566.28
2023-01-02T18:45:59.859Z,96648.31
2023-01-02T18:48:27.852Z,96646.69
2023-01-02T18:50:59.824Z,96632.44
2023-01-02T18:53:31.483Z,96593.31
2023-01-02T18:56:03.780Z,96547.31
2023-01-02T18:58:40.767Z,96643.84
2023-01-02T19:01:31.018Z,96663.00
2023-01-02T19:04:22.415Z,96668.50
2023-01-02T19:06:56.078Z,96663.78
2023-01-02T19:09:30.603Z,96673.75
2023-01-02T19:12:20.856Z,96667.16
2023-01-02T19:15:02.153Z,96678.50
2023-01-02T19:17:34.705Z,96665.88
2023-01-02T19:20:02.452Z,96674.84
2023-01-02T19:22:34.259Z,96667.47
2023-01-02T19:25:05.896Z,96592.56
2023-01-02T19:27:38.294Z,96670.56
2023-01-02T19:30:08.635Z,96651.56
2023-01-02T19:32:37.502Z,96657.38
2023-01-02T19:35:57.417Z,96673.03
2023-01-02T19:38:28.089Z,96674.09
2023-01-02T19:41:05.844Z,96678.53
2023-01-02T19:43:34.845Z,96588.66
2023-01-02T19:46:07.730Z,96673.03
2023-01-02T19:48:35.476Z,96599.53
2023-01-02T19:51:04.860Z,96592.81
2023-01-02T19:53:32.631Z,96634.88
2023-01-02T19:56:09.803Z,96692.66
2023-01-02T19:58:39.831Z,96682.13
2023-01-02T20:01:08.058Z,96659.41
2023-01-02T20:03:36.582Z,96626.88
2023-01-02T20:06:06.677Z,96661.25
2023-01-02T20:08:35.133Z,96623.81
2023-01-02T20:11:03.998Z,96654.94
2023-01-02T20:13:32.345Z,96671.63
2023-01-02T20:16:02.289Z,96683.50
2023-01-02T20:18:33.033Z,96631.19
2023-01-02T20:21:01.398Z,96655.44
2023-01-02T20:23:35.064Z,96603.91
2023-01-02T20:26:05.490Z,96659.38
2023-01-02T20:28:33.900Z,96689.19
2023-01-02T20:31:02.357Z,96655.06
2023-01-02T20:33:30.424Z,96707.41
2023-01-02T20:35:58.234Z,96606.91
2023-01-02T20:38:26.002Z,96693.06
2023-01-02T20:40:55.054Z,96711.50
2023-01-02T20:43:22.760Z,96704.50
2023-01-02T20:45:50.484Z,96728.31
2023-01-02T20:48:18.293Z,96645.34
2023-01-02T20:50:46.309Z,96648.25
2023-01-02T20:53:15.376Z,96724.16
2023-01-02T20:55:43.104Z,96630.63
2023-01-02T20:58:12.584Z,96710.25
2023-01-02T21:00:41.367Z,96726.63
2023-01-02T21:03:09.378Z,96729.50
2023-01-02T21:05:39.227Z,96731.31
2023-01-02T21:08:07.179Z,96724.00
2023-01-02T21:10:35.903Z,96725.59
2023-01-02T21:13:10.727Z,96702.97
2023-01-02T21:15:45.937Z,96733.69
2023-01-02T21:18:16.153Z,96750.19
2023-01-02T21:20:47.346Z,96754.34
2023-01-02T21:23:15.778Z,96755.72
2023-01-02T21:25:43.649Z,96702.34
2023-01-02T21:28:12.656Z,96755.00
2023-01-02T21:30:43.513Z,96758.09
2023-01-02T21:33:11.621Z,96748.78
2023-01-02T21:35:40.103Z,96762.25
2023-01-02T21:38:07.769Z,96769.91
2023-01-02T21:40:35.843Z,96767.78
2023-01-02T21:43:03.595Z,96704.44
2023-01-02T21:45:31.255Z,96747.78
2023-01-02T21:48:00.239Z,96773.25
2023-01-02T21:50:28.144Z,96706.44
2023-01-02T21:52:55.929Z,96724.31
2023-01-02T21:55:24.373Z,96736.97
2023-01-02T22:00:43.206Z,96793.03
2023-01-02T22:03:12.521Z,96768.41
2023-01-02T22:05:40.397Z,96798.38
2023-01-02T22:08:08.078Z,96790.94
2023-01-02T22:10:35.807Z,96790.94
2023-01-02T22:13:03.490Z,96800.03
2023-01-02T22:15:31.166Z,96760.56
2023-01-02T22:17:58.805Z,96795.78
2023-01-02T22:20:27.889Z,96778.53
2023-01-02T22:22:55.570Z,96799.16
2023-01-02T22:25:23.517Z,96793.56
2023-01-02T22:27:51.245Z,96768.19
2023-01-02T22:30:24.825Z,96786.63
2023-01-02T22:32:55.559Z,96812.31
2023-01-02T22:35:23.275Z,96816.03
2023-01-02T22:37:52.245Z,96799.50
2023-01-02T22:40:20.259Z,96786.31
2023-01-02T22:43:02.062Z,96801.16
2023-01-02T22:45:35.190Z,96835.53
2023-01-02T22:48:07.636Z,96798.66
2023-01-02T22:50:42.742Z,96849.97
2023-01-02T22:53:22.049Z,96844.75
2023-01-02T22:55:50.220Z,96848.13
2023-01-02T22:58:18.613Z,96763.72
2023-01-02T23:00:47.677Z,96814.84
2023-01-02T23:03:16.902Z,96811.97
2023-01-02T23:05:44.627Z,96790.81
2023-01-02T23:08:14.978Z,96850.66
2023-01-02T23:10:42.651Z,96803.56
2023-01-02T23:13:10.382Z,96860.81
2023-01-02T23:15:58.635Z,96800.09
2023-01-02T23:18:43.941Z,96844.91
2023-01-02T23:21:11.834Z,96836.75
2023-01-02T23:23:41.491Z,96867.22
2023-01-02T23:26:09.423Z,96867.97
2023-01-02T23:29:06.118Z,96863.47
2023-01-02T23:31:24.752Z,96864.63
2023-01-02T23:33:52.477Z,96839.22
2023-01-02T23:36:20.180Z,96853.75
2023-01-02T23:38:49.342Z,96790.94
2023-01-02T23:41:17.107Z,96803.34
2023-01-02T23:43:44.743Z,96875.19
2023-01-02T23:46:12.539Z,96875.19
2023-01-02T23:48:40.238Z,96837.19
2023-01-02T23:51:07.859Z,96863.50
2023-01-02T23:53:35.600Z,96861.72
2023-01-02T23:56:04.936Z,96881.81
2023-01-02T23:58:32.614Z,96853.34
